createdAt,value
2023-06-16T00:01:10.693Z,42.70
2023-06-16T00:06:15.729Z,42.90
2023-06-16T00:11:20.224Z,42.80
2023-06-16T00:16:24.491Z,42.70
2023-06-16T00:21:30.973Z,42.80
2023-06-16T00:26:34.478Z,42.90
2023-06-16T00:31:38.237Z,43.00
2023-06-16T00:36:42.942Z,42.90
2023-06-16T00:41:46.229Z,42.90
2023-06-16T00:46:49.592Z,42.80
2023-06-16T00:51:55.722Z,43.00
2023-06-16T00:56:59.088Z,43.20
2023-06-16T01:02:05.715Z,42.90
2023-06-16T01:07:13.862Z,43.00
2023-06-16T01:12:26.080Z,43.30
2023-06-16T01:17:33.828Z,43.60
2023-06-16T01:22:56.311Z,43.30
2023-06-16T01:28:04.906Z,43.60
2023-06-16T01:33:08.772Z,43.70
2023-06-16T01:38:13.371Z,43.50
2023-06-16T01:43:19.080Z,43.60
2023-06-16T01:48:23.506Z,44.30
2023-06-16T01:53:26.981Z,44.40
2023-06-16T01:58:32.048Z,44.60
2023-06-16T02:03:42.788Z,44.70
2023-06-16T02:08:48.805Z,44.60
2023-06-16T02:13:53.710Z,44.20
2023-06-16T02:18:57.151Z,44.50
2023-06-16T02:24:01.664Z,44.30
2023-06-16T02:29:06.966Z,44.30
2023-06-16T02:34:10.448Z,44.90
2023-06-16T02:39:15.807Z,44.50
2023-06-16T02:44:20.549Z,44.40
2023-06-16T02:49:23.985Z,44.30
2023-06-16T02:54:27.502Z,44.20
2023-06-16T02:59:34.895Z,44.60
2023-06-16T03:04:38.311Z,44.70
2023-06-16T03:09:48.344Z,44.90
2023-06-16T03:14:54.581Z,44.80
2023-06-16T03:19:57.986Z,44.80
2023-06-16T03:25:13.392Z,44.60
2023-06-16T03:30:23.365Z,45.20
2023-06-16T03:35:40.227Z,44.80
2023-06-16T03:40:52.528Z,44.70
2023-06-16T03:45:58.350Z,44.70
2023-06-16T03:51:03.100Z,45.20
2023-06-16T03:56:07.090Z,45.30
2023-06-16T04:01:12.108Z,45.60
2023-06-16T04:06:15.647Z,45.70
2023-06-16T04:11:19.003Z,45.80
2023-06-16T04:16:24.527Z,45.80
2023-06-16T04:21:29.771Z,45.70
2023-06-16T04:26:33.848Z,45.50
2023-06-16T04:31:43.915Z,45.70
2023-06-16T04:36:48.050Z,45.70
2023-06-16T04:41:59.615Z,45.40
2023-06-16T04:47:10.480Z,45.40
2023-06-16T04:52:14.109Z,45.60
2023-06-16T04:57:18.035Z,45.50
2023-06-16T05:02:24.018Z,45.80
2023-06-16T05:07:27.565Z,45.80
2023-06-16T05:12:30.805Z,46.50
2023-06-16T05:17:37.911Z,45.70
2023-06-16T05:22:41.542Z,45.90
2023-06-16T05:27:44.974Z,45.80
2023-06-16T05:32:49.914Z,46.00
2023-06-16T05:37:54.564Z,46.20
2023-06-16T05:42:59.168Z,46.20
2023-06-16T05:48:04.680Z,46.30
2023-06-16T05:53:08.781Z,46.60
2023-06-16T05:58:12.871Z,46.80
2023-06-16T06:03:18.644Z,46.90
2023-06-16T06:08:24.214Z,47.20
2023-06-16T06:13:28.000Z,47.00
2023-06-16T06:18:32.962Z,47.20
2023-06-16T06:23:37.882Z,46.80
2023-06-16T06:28:41.829Z,46.60
2023-06-16T06:33:47.616Z,46.20
2023-06-16T06:38:51.713Z,45.90
2023-06-16T06:43:55.213Z,45.70
2023-06-16T06:49:19.814Z,45.80
2023-06-16T06:54:24.193Z,45.40
2023-06-16T06:59:27.483Z,45.50
2023-06-16T07:04:32.296Z,45.40
2023-06-16T07:09:35.816Z,45.30
2023-06-16T07:14:39.626Z,45.20
2023-06-16T07:19:44.396Z,45.10
2023-06-16T07:24:47.784Z,45.10
2023-06-16T07:29:51.278Z,45.00
2023-06-16T07:34:56.343Z,44.90
2023-06-16T07:39:59.631Z,44.90
2023-06-16T07:45:03.003Z,44.80
2023-06-16T07:50:09.753Z,44.60
2023-06-16T07:55:13.302Z,44.20
2023-06-16T08:00:20.041Z,44.20
2023-06-16T08:05:25.488Z,44.20
2023-06-16T08:10:28.920Z,44.10
2023-06-16T08:15:32.243Z,44.10
2023-06-16T08:20:37.296Z,44.40
2023-06-16T08:25:40.605Z,44.20
2023-06-16T08:30:44.070Z,43.90
2023-06-16T08:35:49.150Z,43.60
2023-06-16T08:40:52.711Z,43.40
2023-06-16T08:45:57.738Z,43.30
2023-06-16T08:51:04.049Z,43.30
2023-06-16T08:56:08.614Z,43.00
2023-06-16T09:01:12.264Z,42.80
2023-06-16T09:06:17.058Z,42.30
2023-06-16T09:11:23.899Z,41.60
2023-06-16T09:16:27.308Z,41.30
2023-06-16T09:21:40.082Z,41.60
2023-06-16T09:26:48.285Z,41.30
2023-06-16T09:31:51.977Z,41.20
2023-06-16T09:36:56.917Z,41.00
2023-06-16T09:42:00.687Z,40.60
2023-06-16T09:47:04.656Z,40.70
2023-06-16T09:52:10.076Z,40.30
2023-06-16T09:57:17.010Z,39.90
2023-06-16T10:02:20.505Z,39.90
2023-06-16T10:07:27.143Z,39.70
2023-06-16T10:12:33.565Z,39.10
2023-06-16T10:17:40.204Z,38.90
2023-06-16T10:22:45.847Z,38.60
2023-06-16T10:27:51.643Z,38.20
2023-06-16T10:32:56.232Z,38.40
2023-06-16T10:38:01.291Z,38.00
2023-06-16T10:43:11.516Z,37.60
2023-06-16T10:48:14.928Z,37.70
2023-06-16T10:53:26.011Z,37.60
2023-06-16T10:58:33.710Z,36.40
2023-06-16T11:03:44.503Z,36.50
2023-06-16T11:08:53.901Z,36.30
2023-06-16T11:13:58.328Z,35.90
2023-06-16T11:19:02.381Z,36.50
2023-06-16T11:24:13.793Z,36.20
2023-06-16T11:29:17.531Z,34.90
2023-06-16T11:34:26.670Z,35.70
2023-06-16T11:39:31.349Z,34.90
2023-06-16T11:44:34.751Z,35.30
2023-06-16T11:49:38.463Z,35.10
2023-06-16T11:54:45.022Z,34.90
2023-06-16T11:59:48.856Z,34.30
2023-06-16T12:04:52.735Z,34.20
2023-06-16T12:09:58.302Z,33.70
2023-06-16T12:15:03.951Z,32.90
2023-06-16T12:20:10.946Z,32.90
2023-06-16T12:25:16.625Z,32.80
2023-06-16T12:30:21.111Z,32.60
2023-06-16T12:35:27.666Z,32.70
2023-06-16T12:40:33.438Z,32.30
2023-06-16T12:45:36.921Z,32.50
2023-06-16T12:50:40.273Z,33.10
2023-06-16T12:55:45.099Z,33.40
2023-06-16T13:00:48.807Z,33.50
2023-06-16T13:05:53.712Z,33.60
2023-06-16T13:10:58.616Z,33.80
2023-06-16T13:16:01.975Z,33.90
2023-06-16T13:21:05.387Z,34.30
2023-06-16T13:26:10.112Z,34.30
2023-06-16T13:31:14.936Z,34.50
2023-06-16T13:36:20.049Z,34.50
2023-06-16T13:41:26.587Z,34.20
2023-06-16T13:46:31.164Z,33.90
2023-06-16T13:51:34.596Z,34.00
2023-06-16T13:56:39.336Z,33.80
2023-06-16T14:01:42.629Z,33.50
2023-06-16T14:06:45.913Z,33.70
2023-06-16T14:11:51.063Z,33.30
2023-06-16T14:16:54.404Z,33.30
2023-06-16T14:21:57.741Z,33.00
2023-06-16T14:27:02.454Z,33.20
2023-06-16T14:32:06.565Z,32.90
2023-06-16T14:37:09.818Z,32.90
2023-06-16T14:42:14.654Z,32.70
2023-06-16T14:47:18.293Z,32.50
2023-06-16T14:52:21.718Z,32.60
2023-06-16T14:57:26.460Z,32.60
2023-06-16T15:02:29.818Z,32.40
2023-06-16T15:07:33.341Z,32.80
2023-06-16T15:12:38.217Z,32.70
2023-06-16T15:17:42.685Z,32.80
2023-06-16T15:22:46.198Z,32.90
2023-06-16T15:27:59.700Z,32.90
2023-06-16T15:33:14.582Z,32.70
2023-06-16T15:38:17.933Z,32.90
2023-06-16T15:43:22.638Z,32.90
2023-06-16T15:48:26.483Z,33.00
2023-06-16T15:53:29.776Z,33.00
2023-06-16T15:58:34.544Z,33.20
2023-06-16T16:03:37.991Z,33.20
2023-06-16T16:08:41.387Z,33.40
2023-06-16T16:13:46.088Z,33.50
2023-06-16T16:18:50.472Z,33.60
2023-06-16T16:23:54.180Z,33.80
2023-06-16T16:28:59.139Z,34.00
2023-06-16T16:34:02.510Z,34.00
2023-06-16T16:39:05.979Z,34.40
2023-06-16T16:44:10.700Z,34.50
2023-06-16T16:49:14.166Z,34.40
2023-06-16T16:54:17.632Z,34.30
2023-06-16T16:59:23.568Z,34.00
2023-06-16T17:04:26.975Z,34.00
2023-06-16T17:09:30.379Z,34.40
2023-06-16T17:14:35.091Z,34.50
2023-06-16T17:19:38.472Z,34.50
2023-06-16T17:24:41.808Z,34.60
2023-06-16T17:29:46.623Z,34.50
2023-06-16T17:34:50.013Z,34.20
2023-06-16T17:39:53.627Z,34.30
2023-06-16T17:45:00.134Z,34.60
2023-06-16T17:50:03.604Z,34.70
2023-06-16T17:55:08.114Z,34.60
2023-06-16T18:00:17.145Z,34.90
2023-06-16T18:05:23.598Z,35.00
2023-06-16T18:10:27.528Z,34.80
2023-06-16T18:15:32.267Z,34.60
2023-06-16T18:20:35.601Z,34.70
2023-06-16T18:25:38.892Z,34.80
2023-06-16T18:30:44.047Z,34.90
2023-06-16T18:35:47.437Z,35.40
2023-06-16T18:40:50.777Z,35.50
2023-06-16T18:45:55.837Z,35.80
2023-06-16T18:50:59.262Z,36.00
2023-06-16T18:56:02.593Z,36.00
2023-06-16T19:01:07.407Z,36.40
2023-06-16T19:06:10.916Z,36.60
2023-06-16T19:11:15.027Z,37.10
2023-06-16T19:16:21.842Z,37.20
2023-06-16T19:21:25.625Z,38.20
2023-06-16T19:26:29.168Z,37.80
2023-06-16T19:31:33.873Z,38.20
2023-06-16T19:36:38.117Z,38.40
2023-06-16T19:41:41.673Z,38.20
2023-06-16T19:46:47.584Z,37.90
2023-06-16T19:51:52.895Z,38.40
2023-06-16T19:56:57.256Z,38.30
2023-06-16T20:02:02.012Z,38.40
2023-06-16T20:07:07.228Z,38.70
2023-06-16T20:12:11.437Z,38.70
2023-06-16T20:17:16.270Z,39.20
2023-06-16T20:22:19.706Z,39.00
2023-06-16T20:27:23.125Z,38.90
2023-06-16T20:32:28.014Z,39.20
2023-06-16T20:37:31.459Z,39.70
2023-06-16T20:42:36.725Z,39.60
2023-06-16T20:47:41.471Z,39.80
2023-06-16T20:52:45.143Z,39.90
2023-06-16T20:57:49.908Z,39.80
2023-06-16T21:02:56.296Z,39.80
2023-06-16T21:08:00.171Z,39.70
2023-06-16T21:13:03.770Z,39.60
2023-06-16T21:18:08.816Z,39.60
2023-06-16T21:23:12.165Z,39.70
2023-06-16T21:28:15.587Z,39.60
2023-06-16T21:33:20.646Z,39.60
2023-06-16T21:38:30.776Z,39.70
2023-06-16T21:43:34.376Z,39.80
2023-06-16T21:48:39.209Z,40.00
2023-06-16T21:53:44.494Z,40.10
2023-06-16T21:58:47.864Z,40.00
2023-06-16T22:03:52.669Z,40.00
2023-06-16T22:09:00.574Z,40.20
2023-06-16T22:14:04.580Z,40.10
2023-06-16T22:19:10.272Z,40.20
2023-06-16T22:24:13.682Z,40.20
2023-06-16T22:29:17.104Z,40.30
2023-06-16T22:34:21.800Z,40.50
2023-06-16T22:39:25.573Z,40.70
2023-06-16T22:44:29.171Z,40.70
2023-06-16T22:49:35.759Z,40.60
2023-06-16T22:54:39.302Z,40.90
2023-06-16T22:59:42.579Z,40.50
2023-06-16T23:04:47.455Z,40.20
2023-06-16T23:09:50.783Z,40.10
2023-06-16T23:14:54.181Z,40.00
2023-06-16T23:19:59.241Z,40.00
2023-06-16T23:25:02.927Z,40.40
2023-06-16T23:30:07.384Z,40.50
2023-06-16T23:35:12.575Z,40.90
2023-06-16T23:40:16.094Z,41.10
2023-06-16T23:45:19.617Z,41.30
2023-06-16T23:50:24.433Z,41.50
2023-06-16T23:55:28.444Z,41.80
